Time;durP1;ratioP1;P1;durP2;ratioP2;P2;SDS_P1;SDS_P2;PMS_P1;PMS_P2;Temp;Humidity;BMP_temperature;BMP_pressure;BME280_temperature;BME280_humidity;BME280_pressure;Samples;Min_cycle;Max_cycle;Signal;HPM_P1;HPM_P2
2023/09/20 00:00:54;;;;;;;15.10;4.60;;;16.50;99.90;;;15.89;100.00;100731.88;4188594;28;20028;-73
2023/09/20 00:02:56;;;;;;;8.30;3.67;;;16.50;99.90;;;15.92;100.00;100725.34;4184201;28;20025;-73
2023/09/20 00:05:00;;;;;;;13.57;5.35;;;16.50;99.90;;;15.94;100.00;100724.16;4190484;28;20029;-73
2023/09/20 00:07:00;;;;;;;;;;;16.50;99.90;;;15.93;100.00;100716.34;4185656;28;20028;-73
2023/09/20 00:09:02;;;;;;;14.07;5.45;;;16.50;99.90;;;16.00;100.00;100718.06;4185382;28;20387;-73
2023/09/20 00:11:05;;;;;;;10.30;4.38;;;16.60;99.90;;;16.09;100.00;100721.41;4199658;28;20366;-73
2023/09/20 00:13:09;;;;;;;15.20;5.60;;;16.60;99.90;;;16.17;100.00;100718.59;4184268;28;20021;-73
2023/09/20 00:15:11;;;;;;;11.82;4.40;;;16.70;99.90;;;16.18;100.00;100714.13;4186998;28;20025;-73
2023/09/20 00:17:11;;;;;;;14.40;4.45;;;16.70;99.90;;;16.25;100.00;100712.31;4184144;28;20067;-73
2023/09/20 00:19:12;;;;;;;10.27;4.30;;;16.80;99.90;;;16.30;100.00;100704.59;4187382;28;20025;-73
2023/09/20 00:21:13;;;;;;;10.75;3.90;;;16.80;99.90;;;16.40;100.00;100705.03;4183617;28;20509;-73
2023/09/20 00:23:20;;;;;;;8.32;4.20;;;16.90;99.90;;;16.48;100.00;100708.41;4201967;28;20070;-73
2023/09/20 00:25:21;;;;;;;11.02;4.18;;;17.10;99.90;;;16.56;100.00;100710.94;4200490;28;20078;-73
2023/09/20 00:27:22;;;;;;;11.73;4.10;;;17.10;99.90;;;16.59;100.00;100707.88;4185073;28;20021;-73
2023/09/20 00:29:24;;;;;;;9.13;4.20;;;17.10;99.90;;;16.66;100.00;100707.94;4190266;28;20033;-73
2023/09/20 00:31:26;;;;;;;10.07;4.20;;;17.20;99.90;;;16.66;100.00;100709.78;4184383;28;20021;-73
2023/09/20 00:33:29;;;;;;;9.35;3.95;;;17.20;99.90;;;16.64;100.00;100707.28;4196922;28;20028;-73
2023/09/20 00:35:30;;;;;;;11.65;3.45;;;17.20;99.90;;;16.57;100.00;100701.94;4196832;28;21394;-73
2023/09/20 00:37:31;;;;;;;9.05;3.53;;;17.20;99.90;;;16.51;100.00;100707.19;4184837;28;20033;-73
2023/09/20 00:39:32;;;;;;;11.45;4.78;;;17.10;99.90;;;16.44;100.00;100708.97;4193347;28;20439;-73
2023/09/20 00:41:33;;;;;;;10.13;3.97;;;17.10;99.90;;;16.39;100.00;100706.91;4183900;28;20097;-73
2023/09/20 00:43:34;;;;;;;10.45;4.35;;;17.00;99.90;;;16.30;100.00;100699.25;4201288;28;20488;-73
2023/09/20 00:45:40;;;;;;;11.98;4.25;;;16.90;99.90;;;16.27;100.00;100699.66;4195225;28;20032;-73
2023/09/20 00:47:47;;;;;;;9.00;4.28;;;16.90;99.90;;;16.25;100.00;100699.81;4185155;28;20025;-73
2023/09/20 00:49:48;;;;;;;12.52;4.07;;;16.90;99.90;;;16.24;100.00;100697.38;4187334;28;20029;-73
2023/09/20 00:51:49;;;;;;;13.20;4.30;;;16.80;99.90;;;16.23;100.00;100685.06;4184881;28;20029;-73
2023/09/20 00:53:57;;;;;;;8.23;3.58;;;16.90;99.90;;;16.19;100.00;100679.31;4191549;28;20017;-73
2023/09/20 00:55:58;;;;;;;7.80;3.92;;;16.80;99.90;;;16.16;100.00;100677.03;4188510;28;20064;-73
2023/09/20 00:58:07;;;;;;;14.70;5.38;;;16.80;99.90;;;16.18;100.00;100677.69;4183832;28;20061;-73
2023/09/20 01:00:20;;;;;;;9.85;3.58;;;16.80;99.90;;;16.16;100.00;100679.69;4185014;28;20493;-73
2023/09/20 01:02:21;;;;;;;9.85;3.53;;;16.80;99.90;;;16.13;100.00;100665.97;4196949;28;20025;-73
2023/09/20 01:04:22;;;;;;;10.68;3.72;;;16.70;99.90;;;16.12;100.00;100662.50;4203833;28;20032;-73
2023/09/20 01:06:25;;;;;;;10.60;4.80;;;16.70;99.90;;;16.10;100.00;100659.19;4191135;28;20846;-73
2023/09/20 01:08:26;;;;;;;13.20;5.75;;;16.70;99.90;;;16.05;100.00;100654.44;4187077;28;20108;-73
2023/09/20 01:10:27;;;;;;;8.50;4.25;;;16.70;99.90;;;16.11;100.00;100665.31;4181227;28;20032;-73
2023/09/20 01:12:28;;;;;;;8.30;3.90;;;16.70;99.90;;;16.09;100.00;100656.72;4188034;28;20033;-73
2023/09/20 01:14:29;;;;;;;9.00;3.70;;;16.70;99.90;;;16.08;100.00;100652.41;4189271;28;20059;-73
2023/09/20 01:16:32;;;;;;;12.63;3.72;;;16.70;99.90;;;16.09;100.00;100654.88;4194863;28;20036;-73
2023/09/20 01:18:34;;;;;;;9.85;4.00;;;16.70;99.90;;;16.08;100.00;100653.22;4188105;28;20029;-73
2023/09/20 01:20:39;;;;;;;11.57;4.10;;;16.70;99.90;;;16.10;100.00;100653.84;4201379;28;20090;-73
2023/09/20 01:22:41;;;;;;;9.60;4.22;;;16.70;99.90;;;16.10;100.00;100648.53;4186842;28;20118;-73
2023/09/20 01:24:43;;;;;;;10.45;4.03;;;16.70;99.90;;;16.12;100.00;100651.00;4195461;28;20024;-73
2023/09/20 01:26:46;;;;;;;9.57;4.30;;;16.70;99.90;;;16.12;100.00;100646.53;4191255;28;20013;-73
2023/09/20 01:28:47;;;;;;;12.73;4.40;;;16.70;99.90;;;16.12;100.00;100643.03;4202285;28;20098;-73
2023/09/20 01:30:50;;;;;;;10.38;4.38;;;16.70;99.90;;;16.13;100.00;100642.03;4186936;28;20299;-73
2023/09/20 01:32:53;;;;;;;10.70;3.80;;;16.70;99.90;;;16.10;100.00;100640.53;4196728;28;20021;-73
2023/09/20 01:34:55;;;;;;;7.80;3.53;;;16.70;99.90;;;16.09;100.00;100630.94;4198965;28;20035;-73
2023/09/20 01:36:57;;;;;;;7.05;3.35;;;16.70;99.90;;;16.05;100.00;100630.50;4188056;28;20278;-73
2023/09/20 01:38:57;;;;;;;12.23;4.05;;;16.70;99.90;;;16.04;100.00;100633.34;4187592;28;20049;-73
2023/09/20 01:40:58;;;;;;;7.90;3.70;;;16.70;99.90;;;16.01;100.00;100625.75;4187636;28;20040;-73
2023/09/20 01:43:01;;;;;;;14.25;4.88;;;16.60;99.90;;;16.03;100.00;100629.06;4197133;28;20020;-73
2023/09/20 01:45:06;;;;;;;14.77;4.70;;;16.60;99.90;;;15.99;100.00;100620.63;4197216;28;20043;-73
2023/09/20 01:47:07;;;;;;;7.30;4.18;;;16.60;99.90;;;15.98;100.00;100620.81;4187688;28;20101;-73
2023/09/20 01:49:08;;;;;;;8.52;4.85;;;16.60;99.90;;;15.95;100.00;100615.88;4195110;28;20511;-73
2023/09/20 01:51:09;;;;;;;10.68;4.03;;;16.50;99.90;;;15.93;100.00;100615.25;4186156;28;20021;-73
2023/09/20 01:53:10;;;;;;;13.52;4.72;;;16.60;99.90;;;15.91;100.00;100607.50;4201389;28;20407;-73
2023/09/20 01:55:15;;;;;;;11.50;4.50;;;16.60;99.90;;;15.92;100.00;100605.63;4191689;28;20504;-73
2023/09/20 01:57:15;;;;;;;14.50;4.88;;;16.60;99.90;;;15.94;100.00;100600.94;4194036;28;20484;-73
2023/09/20 01:59:16;;;;;;;12.15;4.28;;;16.60;99.90;;;15.88;100.00;100591.91;4187461;28;20040;-73
2023/09/20 02:01:17;;;;;;;9.18;4.28;;;16.60;99.90;;;15.91;100.00;100593.34;4187233;28;20040;-73
2023/09/20 02:03:18;;;;;;;9.50;3.67;;;16.60;99.90;;;15.92;100.00;100602.97;4191675;28;20035;-73
2023/09/20 02:05:26;;;;;;;8.88;3.97;;;16.60;99.90;;;15.90;100.00;100594.38;4187399;28;20100;-73
2023/09/20 02:07:27;;;;;;;14.18;4.72;;;16.50;99.90;;;15.95;100.00;100592.75;4198430;28;20525;-73
2023/09/20 02:09:28;;;;;;;12.27;4.28;;;16.50;99.90;;;15.93;100.00;100586.00;4186130;28;20025;-73
2023/09/20 02:11:29;;;;;;;11.52;4.40;;;16.60;99.90;;;15.94;100.00;100587.66;4193191;28;20055;-73
2023/09/20 02:13:29;;;;;;;11.02;4.85;;;16.60;99.90;;;15.88;100.00;100581.28;4203300;28;20369;-73
2023/09/20 02:15:34;;;;;;;10.65;4.05;;;16.50;99.90;;;15.90;100.00;100578.41;4203715;28;20036;-73
2023/09/20 02:17:35;;;;;;;10.25;4.65;;;16.50;99.90;;;15.89;100.00;100577.56;4200773;28;20078;-73
2023/09/20 02:19:36;;;;;;;13.30;4.97;;;16.50;99.90;;;15.91;100.00;100572.91;4187186;28;20021;-73
2023/09/20 02:21:37;;;;;;;12.43;4.78;;;16.50;99.90;;;15.95;100.00;100573.31;4194786;28;20024;-73
2023/09/20 02:23:37;;;;;;;11.95;5.03;;;16.60;99.90;;;15.93;100.00;100562.06;4187019;28;20033;-73
2023/09/20 02:25:40;;;;;;;13.15;4.28;;;16.50;99.90;;;15.95;100.00;100560.84;4201420;28;20046;-73
2023/09/20 02:27:43;;;;;;;10.10;3.92;;;16.60;99.90;;;16.01;100.00;100562.72;4187097;28;20021;-73
2023/09/20 02:29:44;;;;;;;13.00;3.85;;;16.60;99.90;;;16.05;100.00;100563.16;4195354;28;20021;-73
2023/09/20 02:31:47;;;;;;;8.63;3.83;;;16.60;99.90;;;16.04;100.00;100564.16;4186886;28;20059;-73
2023/09/20 02:33:48;;;;;;;14.55;4.78;;;16.60;99.90;;;16.12;100.00;100560.53;4188910;28;20037;-73
2023/09/20 02:35:49;;;;;;;10.32;4.68;;;16.70;99.90;;;16.18;100.00;100547.28;4197051;28;20029;-73
2023/09/20 02:37:50;;;;;;;10.98;5.25;;;16.80;99.90;;;16.30;100.00;100539.53;4186449;28;20029;-73
2023/09/20 02:39:51;;;;;;;13.32;4.38;;;16.80;99.90;;;16.39;100.00;100543.69;4198760;28;20066;-73
2023/09/20 02:41:52;;;;;;;9.25;4.15;;;16.90;99.90;;;16.47;100.00;100546.16;4185373;28;20033;-73
2023/09/20 02:43:53;;;;;;;13.82;4.65;;;17.00;99.90;;;16.52;100.00;100533.91;4186898;28;20021;-73
2023/09/20 02:45:54;;;;;;;12.32;4.05;;;17.00;99.90;;;16.57;100.00;100536.84;4194288;28;20024;-73
2023/09/20 02:47:55;;;;;;;13.23;5.20;;;17.10;99.90;;;16.61;100.00;100531.09;4186706;28;20021;-73
2023/09/20 02:49:56;;;;;;;12.68;4.72;;;17.10;99.90;;;16.62;100.00;100524.75;4200763;28;20038;-73
2023/09/20 02:51:57;;;;;;;12.43;3.70;;;17.10;99.90;;;16.62;100.00;100528.22;4196087;28;20021;-73
2023/09/20 02:53:58;;;;;;;7.63;3.67;;;17.20;99.90;;;16.58;100.00;100517.16;4195404;28;20029;-73
2023/09/20 02:56:00;;;;;;;7.05;3.65;;;17.20;99.90;;;16.57;100.00;100520.03;4203149;28;20020;-73
2023/09/20 02:58:01;;;;;;;14.52;4.13;;;17.10;99.90;;;16.51;100.00;100510.97;4203147;28;20024;-73
2023/09/20 03:00:06;;;;;;;5.82;3.47;;;17.10;99.90;;;16.48;100.00;100507.88;4203093;28;20020;-73
2023/09/20 03:02:07;;;;;;;8.00;3.88;;;17.10;99.90;;;16.45;100.00;100498.47;4192698;28;20499;-73
2023/09/20 03:04:08;;;;;;;8.07;3.95;;;17.00;99.90;;;16.48;100.00;100508.69;4185225;28;20025;-73
2023/09/20 03:06:10;;;;;;;6.18;3.17;;;17.10;99.90;;;16.42;100.00;100504.19;4200930;28;20021;-73
2023/09/20 03:08:11;;;;;;;11.70;3.95;;;17.00;99.90;;;16.41;100.00;100507.03;4190981;28;20017;-73
2023/09/20 03:10:14;;;;;;;12.07;4.00;;;17.00;99.90;;;16.34;100.00;100499.00;4202932;28;20043;-73
2023/09/20 03:12:14;;;;;;;9.80;4.13;;;17.00;99.90;;;16.35;100.00;100495.34;4189375;28;20104;-73
2023/09/20 03:14:16;;;;;;;18.00;4.15;;;17.00;99.90;;;16.35;100.00;100497.16;4186167;28;20037;-73
2023/09/20 03:16:21;;;;;;;15.20;4.82;;;16.90;99.90;;;16.39;100.00;100493.09;4186316;28;20020;-73
2023/09/20 03:18:22;;;;;;;10.02;3.90;;;17.00;99.90;;;16.38;100.00;100486.94;4186259;28;20420;-73
2023/09/20 03:20:25;;;;;;;14.02;4.15;;;17.00;99.90;;;16.40;100.00;100482.25;4186072;28;20029;-73
2023/09/20 03:22:26;;;;;;;12.07;5.03;;;17.00;99.90;;;16.47;100.00;100480.44;4200709;28;20400;-73
2023/09/20 03:24:27;;;;;;;11.15;4.03;;;17.10;99.90;;;16.54;100.00;100475.16;4185692;28;20036;-73
2023/09/20 03:26:30;;;;;;;10.77;3.80;;;17.10;99.90;;;16.59;100.00;100468.19;4193453;28;20400;-73
2023/09/20 03:28:33;;;;;;;8.13;3.08;;;17.20;99.90;;;16.68;100.00;100466.16;4184908;28;20044;-73
2023/09/20 03:30:37;;;;;;;8.45;4.07;;;17.20;99.90;;;16.75;100.00;100471.50;4199435;28;20028;-73
2023/09/20 03:32:40;;;;;;;;;;;17.30;99.90;;;16.81;100.00;100468.03;4191242;28;20085;-73
2023/09/20 03:34:42;;;;;;;13.45;3.75;;;17.40;99.90;;;16.87;100.00;100464.56;4184918;28;19909;-73
2023/09/20 03:36:43;;;;;;;15.23;4.32;;;17.50;99.90;;;16.92;100.00;100462.94;4189416;28;20036;-73
2023/09/20 03:38:44;;;;;;;11.32;4.35;;;17.50;99.90;;;16.93;100.00;100461.09;4184443;28;20455;-73
2023/09/20 03:40:45;;;;;;;7.30;4.00;;;17.50;99.90;;;16.94;100.00;100460.03;4185861;28;20025;-73
2023/09/20 03:42:48;;;;;;;10.57;4.30;;;17.50;99.90;;;16.91;100.00;100449.78;4184622;28;20495;-73
2023/09/20 03:44:49;;;;;;;11.48;5.40;;;17.50;99.90;;;16.85;100.00;100453.25;4184734;28;20029;-73
2023/09/20 03:46:50;;;;;;;12.15;4.13;;;17.40;99.90;;;16.80;100.00;100439.75;4185921;28;20025;-73
2023/09/20 03:48:52;;;;;;;10.48;5.15;;;17.40;99.90;;;16.80;100.00;100437.91;4184508;28;20110;-73
2023/09/20 03:50:53;;;;;;;10.07;4.35;;;17.40;99.90;;;16.77;100.00;100435.66;4194261;28;20028;-73
2023/09/20 03:52:54;;;;;;;7.60;3.78;;;17.40;99.90;;;16.83;100.00;100434.84;4184292;28;20029;-73
2023/09/20 03:54:55;;;;;;;8.15;3.97;;;17.40;99.90;;;16.86;100.00;100436.28;4201855;28;20021;-73
2023/09/20 03:56:55;;;;;;;8.98;4.40;;;17.40;99.90;;;16.81;100.00;100434.22;4195071;28;20017;-73
2023/09/20 03:58:57;;;;;;;6.93;3.22;;;17.40;99.90;;;16.82;100.00;100429.69;4185649;28;20029;-73
2023/09/20 04:01:02;;;;;;;6.85;3.40;;;17.40;99.90;;;16.83;100.00;100436.69;4185443;28;20031;-73
2023/09/20 04:03:11;;;;;;;7.32;4.32;;;17.40;99.90;;;16.78;100.00;100431.16;4189346;28;20029;-73
2023/09/20 04:05:14;;;;;;;7.60;4.07;;;17.40;99.90;;;16.76;100.00;100433.19;4202048;28;20017;-73
2023/09/20 04:07:14;;;;;;;7.05;3.35;;;17.40;99.90;;;16.70;100.00;100421.50;4200372;28;20033;-73
2023/09/20 04:09:15;;;;;;;10.43;4.20;;;17.30;99.90;;;16.64;100.00;100426.81;4187255;28;20029;-73
2023/09/20 04:11:16;;;;;;;10.23;3.83;;;17.20;99.90;;;16.58;100.00;100425.78;4189012;28;20028;-73
2023/09/20 04:13:17;;;;;;;11.80;3.40;;;17.20;99.90;;;16.54;100.00;100413.91;4185428;28;20028;-73
2023/09/20 04:15:18;;;;;;;14.45;4.25;;;17.20;99.90;;;16.51;100.00;100415.13;4185426;28;20072;-73
2023/09/20 04:17:21;;;;;;;9.88;3.40;;;17.10;99.90;;;16.49;100.00;100413.66;4185243;28;20071;-73
2023/09/20 04:19:22;;;;;;;7.88;2.88;;;17.10;99.90;;;16.49;100.00;100408.31;4188605;28;20067;-73
2023/09/20 04:21:23;;;;;;;11.13;3.80;;;17.10;99.90;;;16.49;100.00;100403.81;4185072;28;20028;-73
2023/09/20 04:23:24;;;;;;;8.68;3.85;;;17.10;99.90;;;16.46;100.00;100403.41;4194983;28;20044;-73
2023/09/20 04:25:25;;;;;;;8.13;3.42;;;17.10;99.90;;;16.45;100.00;100381.31;4184058;28;20075;-73
2023/09/20 04:27:29;;;;;;;10.57;3.40;;;17.10;99.90;;;16.48;100.00;100399.53;4189831;28;20024;-73
2023/09/20 04:29:31;;;;;;;11.60;3.80;;;17.10;99.90;;;16.44;100.00;100387.63;4202083;28;20036;-73
2023/09/20 04:31:33;;;;;;;7.60;3.28;;;17.10;99.90;;;16.46;100.00;100390.09;4189123;28;20029;-73
2023/09/20 04:33:35;;;;;;;10.48;3.83;;;17.00;99.90;;;16.45;100.00;100389.28;4194648;28;20531;-73
2023/09/20 04:35:36;;;;;;;9.07;3.15;;;17.10;99.90;;;16.46;100.00;100392.75;4187843;28;20087;-73
2023/09/20 04:37:38;;;;;;;13.73;4.20;;;17.10;99.90;;;16.48;100.00;100388.88;4184640;28;20040;-73
2023/09/20 04:39:39;;;;;;;12.90;3.40;;;17.10;99.90;;;16.48;100.00;100388.06;4185318;28;20029;-73
2023/09/20 04:41:41;;;;;;;10.88;3.42;;;17.00;99.90;;;16.51;100.00;100388.47;4184826;28;20036;-73
2023/09/20 04:43:41;;;;;;;10.50;3.70;;;17.10;99.90;;;16.48;100.00;100377.41;4200511;28;20108;-73
2023/09/20 04:45:43;;;;;;;8.73;3.95;;;17.10;99.90;;;16.49;100.00;100390.50;4200530;28;20554;-73
2023/09/20 04:47:43;;;;;;;13.00;4.43;;;17.10;99.90;;;16.50;100.00;100384.16;4201724;28;20020;-73
2023/09/20 04:49:45;;;;;;;14.05;3.67;;;17.10;99.90;;;16.51;100.00;100392.97;4201514;28;20411;-73
2023/09/20 04:51:46;;;;;;;10.38;3.38;;;17.10;99.90;;;16.52;100.00;100392.75;4201572;28;20468;-73
2023/09/20 04:53:47;;;;;;;14.75;3.83;;;17.10;99.90;;;16.52;100.00;100387.44;4183899;28;20033;-73
2023/09/20 04:55:48;;;;;;;7.53;3.10;;;17.10;99.90;;;16.54;100.00;100389.94;4185015;28;20028;-73
2023/09/20 04:57:49;;;;;;;8.50;3.35;;;17.10;99.90;;;16.55;100.00;100383.56;4185132;28;20025;-73
2023/09/20 04:59:50;;;;;;;14.73;4.20;;;17.10;99.90;;;16.51;100.00;100382.34;4185086;28;20029;-73
2023/09/20 05:01:51;;;;;;;8.82;3.53;;;17.10;99.90;;;16.51;100.00;100385.00;4190785;28;20037;-73
2023/09/20 05:03:52;;;;;;;12.73;3.78;;;17.10;99.90;;;16.52;100.00;100379.44;4185229;28;20018;-73
2023/09/20 05:05:53;;;;;;;10.90;3.47;;;17.10;99.90;;;16.52;100.00;100386.63;4184691;28;20032;-73
2023/09/20 05:07:54;;;;;;;7.45;3.65;;;17.10;99.90;;;16.53;100.00;100386.44;4189704;28;20025;-73
2023/09/20 05:09:55;;;;;;;10.57;3.13;;;17.10;99.90;;;16.56;100.00;100382.56;4193530;28;20033;-73
2023/09/20 05:11:55;;;;;;;8.43;4.20;;;17.20;99.90;;;16.58;100.00;100385.84;4193659;28;20031;-73
2023/09/20 05:13:56;;;;;;;8.20;4.53;;;17.20;99.90;;;16.59;100.00;100375.00;4198091;28;20483;-73
2023/09/20 05:15:57;;;;;;;9.35;4.03;;;17.20;99.90;;;16.60;100.00;100378.47;4198046;28;20423;-73
2023/09/20 05:17:58;;;;;;;9.23;3.20;;;17.20;99.90;;;16.65;100.00;100370.69;4192522;28;20049;-73
2023/09/20 05:20:00;;;;;;;10.45;3.50;;;17.20;99.90;;;16.70;100.00;100368.22;4188899;28;20017;-73
2023/09/20 05:22:01;;;;;;;12.77;3.47;;;17.30;99.90;;;16.76;100.00;100361.25;4184564;28;20115;-73
2023/09/20 05:24:04;;;;;;;8.98;4.25;;;17.40;99.90;;;16.81;100.00;100364.16;4199461;28;20063;-73
2023/09/20 05:26:05;;;;;;;10.02;4.10;;;17.40;99.90;;;16.78;100.00;100361.88;4183618;28;20064;-73
2023/09/20 05:28:05;;;;;;;8.60;3.08;;;17.40;99.90;;;16.76;100.00;100355.94;4192959;28;20016;-73
2023/09/20 05:30:08;;;;;;;13.25;3.90;;;17.40;99.90;;;16.68;100.00;100364.13;4196135;28;20077;-73
2023/09/20 05:32:10;;;;;;;11.18;3.80;;;17.40;99.90;;;16.70;100.00;100373.56;4201161;28;20029;-73
2023/09/20 05:34:11;;;;;;;10.10;3.80;;;17.30;99.90;;;16.67;100.00;100362.47;4199969;28;20017;-73
2023/09/20 05:36:12;;;;;;;9.68;3.13;;;17.30;99.90;;;16.63;100.00;100361.28;4190425;28;20076;-73
2023/09/20 05:38:13;;;;;;;10.25;4.00;;;17.20;99.90;;;16.60;100.00;100357.19;4195931;28;20040;-73
2023/09/20 05:40:17;;;;;;;7.32;3.25;;;17.20;99.90;;;16.59;100.00;100351.03;4183359;28;20025;-73
2023/09/20 05:42:17;;;;;;;13.15;4.05;;;17.20;99.90;;;16.57;100.00;100352.25;4183661;28;20497;-73
2023/09/20 05:44:19;;;;;;;9.02;3.15;;;17.20;99.90;;;16.60;100.00;100357.19;4183568;28;20033;-73
2023/09/20 05:46:20;;;;;;;8.82;3.45;;;17.20;99.90;;;16.63;100.00;100362.09;4183442;28;20025;-73
2023/09/20 05:48:20;;;;;;;11.20;3.83;;;17.20;99.90;;;16.61;100.00;100368.66;4185285;28;20028;-73
2023/09/20 05:50:27;;;;;;;12.82;3.42;;;17.20;99.90;;;16.59;100.00;100364.34;4188114;28;20029;-73
2023/09/20 05:52:27;;;;;;;11.65;4.95;;;17.20;99.90;;;16.58;100.00;100378.66;4195386;28;20110;-73
2023/09/20 05:54:29;;;;;;;12.77;3.55;;;17.20;99.90;;;16.60;100.00;100367.81;4187355;28;20028;-73
2023/09/20 05:56:30;;;;;;;11.68;3.55;;;17.20;99.90;;;16.66;100.00;100366.19;4202660;28;20103;-73
2023/09/20 05:58:31;;;;;;;12.13;4.32;;;17.20;99.90;;;16.70;100.00;100359.41;4187593;28;20017;-73
2023/09/20 06:00:35;;;;;;;12.10;4.28;;;17.20;99.90;;;16.74;100.00;100366.81;4193876;28;20032;-72
2023/09/20 06:02:35;;;;;;;8.07;2.92;;;17.30;99.90;;;16.77;100.00;100358.41;4190832;28;20043;-73
2023/09/20 06:04:39;;;;;;;12.55;3.30;;;17.40;99.90;;;16.89;100.00;100362.09;4187581;28;20029;-73
2023/09/20 06:06:40;;;;;;;8.73;3.42;;;17.40;99.90;;;16.92;100.00;100366.19;4192963;28;20029;-73
2023/09/20 06:08:42;;;;;;;7.80;2.90;;;17.50;99.90;;;16.97;100.00;100367.19;4186346;28;20021;-73
2023/09/20 06:10:44;;;;;;;8.70;3.10;;;17.50;99.90;;;17.02;100.00;100364.72;4200773;28;20028;-73
2023/09/20 06:12:46;;;;;;;9.80;2.90;;;17.60;99.90;;;17.05;100.00;100361.63;4187440;28;20035;-73
2023/09/20 06:14:47;;;;;;;12.52;3.50;;;17.60;99.90;;;17.12;100.00;100351.81;4193348;28;20083;-72
2023/09/20 06:16:48;;;;;;;13.10;3.85;;;17.60;99.90;;;17.09;100.00;100343.41;4187406;28;20037;-72
2023/09/20 06:18:49;;;;;;;10.13;4.13;;;17.70;99.90;;;17.06;100.00;100349.16;4191069;28;20079;-73
2023/09/20 06:20:51;;;;;;;10.35;3.45;;;17.60;99.90;;;17.02;100.00;100350.59;4194456;28;20508;-73
2023/09/20 06:22:53;;;;;;;8.60;3.10;;;17.60;99.90;;;16.99;100.00;100345.69;4203898;28;20407;-72
2023/09/20 06:24:56;;;;;;;11.07;3.72;;;17.60;99.90;;;17.00;100.00;100339.31;4203677;28;20028;-73
2023/09/20 06:26:58;;;;;;;11.63;3.25;;;17.60;99.90;;;17.03;100.00;100336.22;4188844;28;20028;-72
2023/09/20 06:28:59;;;;;;;8.55;3.47;;;17.60;99.90;;;17.09;100.00;100343.41;4189259;28;20040;-74
2023/09/20 06:31:00;;;;;;;12.90;3.63;;;17.70;99.90;;;17.09;100.00;100332.72;4190530;28;20025;-74
2023/09/20 06:33:03;;;;;;;9.05;3.17;;;17.70;99.90;;;17.17;100.00;100337.88;4196107;28;20516;-74
2023/09/20 06:35:05;;;;;;;9.93;3.50;;;17.70;99.90;;;17.22;100.00;100337.22;4189807;28;20097;-74
2023/09/20 06:37:06;;;;;;;11.35;3.55;;;17.70;99.90;;;17.30;100.00;100339.66;4186785;28;20033;-74
2023/09/20 06:39:08;;;;;;;9.77;3.40;;;17.80;99.90;;;17.33;100.00;100332.06;4186669;28;20504;-74
2023/09/20 06:41:10;;;;;;;11.73;2.80;;;17.80;99.90;;;17.40;100.00;100337.38;4187567;28;20055;-74
2023/09/20 06:43:13;;;;;;;10.27;2.78;;;17.90;99.90;;;17.48;100.00;100345.97;4186801;28;20028;-74
2023/09/20 06:45:13;;;;;;;9.48;3.28;;;18.00;99.90;;;17.54;100.00;100345.16;4190048;28;20112;-74
2023/09/20 06:47:14;;;;;;;8.63;2.97;;;18.10;99.90;;;17.58;100.00;100351.72;4203383;28;20033;-74
2023/09/20 06:49:15;;;;;;;13.18;3.67;;;18.10;99.90;;;17.59;100.00;100348.00;4203307;28;20047;-74
2023/09/20 06:51:17;;;;;;;7.78;2.63;;;18.10;99.90;;;17.61;100.00;100348.63;4209711;28;20050;-75
2023/09/20 06:53:19;;;;;;;14.60;3.42;;;18.20;99.90;;;17.62;100.00;100350.25;4186173;28;20053;-75
2023/09/20 06:55:20;;;;;;;11.77;3.33;;;18.20;99.90;;;17.58;100.00;100342.91;4186278;28;20400;-74
2023/09/20 06:57:22;;;;;;;12.93;3.38;;;18.20;99.90;;;17.59;100.00;100342.66;4185906;28;20116;-74
2023/09/20 06:59:23;;;;;;;9.13;3.17;;;18.20;99.90;;;17.62;100.00;100336.13;4197592;28;20025;-74
2023/09/20 07:01:25;;;;;;;9.45;3.65;;;18.20;99.90;;;17.64;100.00;100348.22;4195567;28;20032;-74
2023/09/20 07:03:25;;;;;;;11.50;3.42;;;18.20;99.90;;;17.68;100.00;100345.94;4190788;28;20021;-74
2023/09/20 07:05:28;;;;;;;11.88;3.03;;;18.30;99.90;;;17.72;100.00;100338.31;4190562;28;20556;-74
2023/09/20 07:07:28;;;;;;;9.43;2.72;;;18.30;99.90;;;17.81;100.00;100343.19;4197050;28;20504;-75
2023/09/20 07:09:31;;;;;;;10.20;3.20;;;18.40;99.90;;;17.90;100.00;100344.59;4185952;28;20028;-74
2023/09/20 07:11:33;;;;;;;7.65;2.97;;;18.40;99.90;;;18.00;100.00;100342.28;4193747;28;20039;-74
2023/09/20 07:13:34;;;;;;;15.57;3.47;;;18.50;99.90;;;18.01;100.00;100333.22;4186504;28;20017;-75
2023/09/20 07:15:36;;;;;;;9.15;2.90;;;18.60;99.90;;;18.13;100.00;100341.38;4198019;28;20064;-75
2023/09/20 07:17:40;;;;;;;10.93;2.40;;;18.60;99.90;;;18.26;100.00;100341.31;4201576;28;20040;-75
2023/09/20 07:19:47;;;;;;;8.73;2.55;;;18.70;99.90;;;18.31;100.00;100335.34;4185230;28;20044;-75
2023/09/20 07:21:48;;;;;;;9.93;3.13;;;18.80;99.90;;;18.31;100.00;100330.78;4196186;28;20029;-74
2023/09/20 07:23:49;;;;;;;10.15;3.33;;;18.80;99.90;;;18.31;100.00;100341.47;4186468;28;20098;-74
2023/09/20 07:25:50;;;;;;;8.10;2.65;;;18.90;99.90;;;18.31;100.00;100336.13;4188040;28;20070;-74
2023/09/20 07:27:51;;;;;;;9.38;2.58;;;18.90;99.90;;;18.27;100.00;100334.94;4191162;28;20028;-74
2023/09/20 07:29:51;;;;;;;16.98;2.97;;;18.90;99.90;;;18.31;100.00;100338.78;4190851;28;20028;-73
2023/09/20 07:31:53;;;;;;;9.38;2.78;;;18.90;99.90;;;18.29;100.00;100342.72;4187193;28;20445;-73
2023/09/20 07:33:55;;;;;;;8.98;2.78;;;18.90;99.90;;;18.27;100.00;100339.47;4184853;28;20021;-74
2023/09/20 07:36:00;;;;;;;9.48;3.58;;;18.90;99.90;;;18.20;100.00;100339.50;4190739;28;20117;-75
2023/09/20 07:38:02;;;;;;;11.40;3.28;;;18.80;99.90;;;18.19;100.00;100336.00;4194559;28;20090;-74
2023/09/20 07:40:04;;;;;;;14.38;3.92;;;18.80;99.90;;;18.22;100.00;100337.41;4191419;28;20123;-75
2023/09/20 07:42:05;;;;;;;9.32;2.72;;;18.80;99.90;;;18.20;100.00;100334.16;4184837;28;20029;-74
2023/09/20 07:44:07;;;;;;;9.52;2.95;;;18.80;99.90;;;18.24;100.00;100328.19;4207631;28;20526;-74
2023/09/20 07:46:08;;;;;;;13.57;3.45;;;18.90;99.90;;;18.32;100.00;100332.44;4201757;28;20108;-74
2023/09/20 07:48:12;;;;;;;10.50;2.45;;;18.90;99.90;;;18.37;100.00;100334.47;4186058;28;20024;-74
2023/09/20 07:50:14;;;;;;;6.63;2.47;;;18.90;99.90;;;18.36;100.00;100332.81;4186062;28;20052;-75
2023/09/20 07:52:15;;;;;;;8.30;2.78;;;18.90;99.90;;;18.35;100.00;100337.34;4200223;28;20021;-74
2023/09/20 07:54:17;;;;;;;7.10;2.17;;;18.90;99.90;;;18.35;100.00;100336.50;4189149;28;20017;-73
2023/09/20 07:56:20;;;;;;;11.13;3.00;;;18.90;99.90;;;18.30;100.00;100328.34;4183931;28;20025;-75
2023/09/20 07:58:21;;;;;;;7.65;2.60;;;18.90;99.90;;;18.30;100.00;100334.50;4185252;28;20071;-75
2023/09/20 08:00:22;;;;;;;10.82;2.78;;;18.90;99.90;;;18.32;100.00;100329.75;4188117;28;20488;-75
2023/09/20 08:02:24;;;;;;;8.63;3.17;;;18.90;99.90;;;18.29;100.00;100326.69;4190784;28;20053;-75
2023/09/20 08:04:25;;;;;;;12.77;3.80;;;18.90;99.90;;;18.30;100.00;100336.34;4197826;28;20020;-75
2023/09/20 08:06:34;;;;;;;8.55;2.92;;;19.00;99.90;;;18.34;100.00;100334.91;4185194;28;20040;-75
2023/09/20 08:08:35;;;;;;;10.05;2.45;;;19.00;99.90;;;18.33;100.00;100328.72;4193003;28;20024;-76
2023/09/20 08:10:38;;;;;;;7.90;2.22;;;18.90;99.90;;;18.37;100.00;100324.56;4189125;28;20491;-75
2023/09/20 08:12:39;;;;;;;5.97;2.42;;;19.00;99.90;;;18.37;100.00;100329.13;4184660;28;20025;-75
2023/09/20 08:14:40;;;;;;;11.77;2.72;;;19.00;99.90;;;18.37;100.00;100324.56;4187594;28;20032;-75
2023/09/20 08:16:42;;;;;;;5.60;2.92;;;19.00;99.90;;;18.35;100.00;100326.66;4192034;28;20465;-75
2023/09/20 08:21:04;;;;;;;8.35;3.22;;;19.00;99.90;;;18.26;100.00;100335.97;4192461;28;20031;-76